createdAt,value
2018-10-19T00:01:16.559Z,16.71
2018-10-19T00:03:43.871Z,16.78
2018-10-19T00:06:11.171Z,16.60
2018-10-19T00:08:38.511Z,16.65
2018-10-19T00:11:05.811Z,16.60
2018-10-19T00:13:33.084Z,16.49
2018-10-19T00:16:00.425Z,16.45
2018-10-19T00:18:27.695Z,16.40
2018-10-19T00:20:55.036Z,16.38
2018-10-19T00:23:22.518Z,16.28
2018-10-19T00:25:49.834Z,16.19
2018-10-19T00:28:17.191Z,16.24
2018-10-19T00:30:44.508Z,16.10
2018-10-19T00:33:11.895Z,16.02
2018-10-19T00:35:39.161Z,16.04
2018-10-19T00:38:06.509Z,16.04
2018-10-19T00:40:33.768Z,15.96
2018-10-19T00:43:01.042Z,15.80
2018-10-19T00:45:34.054Z,15.84
2018-10-19T00:48:08.703Z,15.69
2018-10-19T00:50:36.662Z,15.60
2018-10-19T00:53:04.785Z,15.55
2018-10-19T00:55:32.642Z,15.54
2018-10-19T00:57:59.994Z,15.52
2018-10-19T01:00:27.375Z,15.47
2018-10-19T01:02:54.644Z,15.40
2018-10-19T01:05:21.956Z,15.19
2018-10-19T01:07:49.222Z,15.30
2018-10-19T01:10:21.020Z,15.10
2018-10-19T01:12:48.330Z,14.95
2018-10-19T01:15:15.771Z,15.13
2018-10-19T01:17:43.060Z,15.04
2018-10-19T01:20:10.394Z,15.04
2018-10-19T01:22:37.680Z,14.83
2018-10-19T01:25:10.739Z,14.82
2018-10-19T01:27:38.377Z,14.91
2018-10-19T01:30:12.847Z,14.88
2018-10-19T01:32:40.188Z,14.83
2018-10-19T01:35:09.747Z,14.81
2018-10-19T01:37:37.267Z,14.88
2018-10-19T01:40:06.640Z,14.82
2018-10-19T01:42:34.128Z,14.62
2018-10-19T01:45:01.608Z,14.54
2018-10-19T01:47:28.858Z,14.49
2018-10-19T01:49:56.299Z,14.51
2018-10-19T01:52:23.551Z,14.41
2018-10-19T01:54:51.370Z,14.34
2018-10-19T01:57:19.004Z,14.27
2018-10-19T01:59:46.270Z,14.34
2018-10-19T02:02:13.673Z,14.43
2018-10-19T02:04:41.677Z,14.41
2018-10-19T02:07:09.000Z,14.30
2018-10-19T02:09:36.355Z,14.16
2018-10-19T02:12:03.719Z,13.91
2018-10-19T02:14:30.958Z,14.12
2018-10-19T02:16:58.422Z,13.97
2018-10-19T02:19:25.653Z,13.98
2018-10-19T02:21:52.909Z,14.03
2018-10-19T02:24:20.355Z,14.13
2018-10-19T02:26:47.585Z,14.07
2018-10-19T02:29:14.978Z,14.00
2018-10-19T02:31:42.255Z,13.81
2018-10-19T02:34:10.161Z,13.52
2018-10-19T02:36:37.418Z,13.74
2018-10-19T02:39:06.296Z,13.66
2018-10-19T02:41:33.692Z,13.75
2018-10-19T02:44:01.636Z,13.65
2018-10-19T02:46:29.035Z,13.84
2018-10-19T02:48:56.262Z,13.87
2018-10-19T02:51:23.529Z,13.96
2018-10-19T02:53:51.509Z,13.99
2018-10-19T02:56:18.769Z,14.00
2018-10-19T02:58:46.079Z,14.07
2018-10-19T03:01:13.353Z,14.20
2018-10-19T03:03:40.675Z,14.08
2018-10-19T03:06:15.576Z,14.28
2018-10-19T03:08:42.867Z,14.24
2018-10-19T03:11:10.200Z,14.25
2018-10-19T03:13:37.421Z,14.14
2018-10-19T03:16:04.905Z,14.10
2018-10-19T03:18:32.251Z,14.03
2018-10-19T03:20:59.573Z,14.15
2018-10-19T03:23:26.903Z,14.15
2018-10-19T03:25:54.173Z,14.17
2018-10-19T03:28:21.461Z,14.04
2018-10-19T03:30:48.768Z,14.17
2018-10-19T03:33:16.084Z,14.16
2018-10-19T03:35:43.463Z,14.13
2018-10-19T03:38:10.742Z,14.10
2018-10-19T03:40:38.080Z,14.07
2018-10-19T03:43:05.408Z,14.05
2018-10-19T03:45:33.501Z,14.09
2018-10-19T03:48:00.840Z,14.24
2018-10-19T03:50:28.135Z,14.21
2018-10-19T03:52:55.883Z,14.18
2018-10-19T03:55:23.205Z,14.08
2018-10-19T03:57:50.460Z,14.04
2018-10-19T04:00:17.712Z,14.02
2018-10-19T04:02:44.963Z,13.98
2018-10-19T04:05:12.645Z,13.94
2018-10-19T04:07:39.808Z,13.98
2018-10-19T04:10:07.670Z,13.88
2018-10-19T04:12:34.928Z,13.82
2018-10-19T04:15:02.260Z,13.78
2018-10-19T04:17:29.471Z,13.72
2018-10-19T04:19:56.846Z,13.77
2018-10-19T04:22:24.097Z,13.76
2018-10-19T04:24:51.395Z,13.69
2018-10-19T04:27:19.035Z,13.68
2018-10-19T04:29:46.432Z,13.70
2018-10-19T04:32:13.770Z,13.69
2018-10-19T04:34:41.041Z,13.73
2018-10-19T04:37:08.424Z,13.66
2018-10-19T04:39:35.703Z,13.63
2018-10-19T04:42:03.903Z,13.59
2018-10-19T04:44:31.197Z,13.51
2018-10-19T04:46:58.935Z,13.42
2018-10-19T04:49:26.664Z,13.44
2018-10-19T04:51:54.126Z,13.54
2018-10-19T04:54:21.890Z,13.50
2018-10-19T04:56:49.187Z,13.43
2018-10-19T04:59:16.874Z,13.37
2018-10-19T05:01:44.125Z,13.33
2018-10-19T05:04:11.407Z,13.32
2018-10-19T05:06:38.673Z,13.33
2018-10-19T05:09:07.693Z,13.26
2018-10-19T05:11:35.218Z,13.27
2018-10-19T05:14:02.597Z,13.23
2018-10-19T05:16:29.885Z,13.17
2018-10-19T05:18:57.204Z,13.12
2018-10-19T05:21:24.513Z,13.07
2018-10-19T05:23:51.765Z,13.10
2018-10-19T05:26:19.107Z,12.96
2018-10-19T05:28:46.386Z,12.91
2018-10-19T05:31:13.838Z,13.05
2018-10-19T05:33:41.164Z,12.91
2018-10-19T05:36:08.406Z,12.85
2018-10-19T05:38:35.688Z,12.50
2018-10-19T05:41:03.079Z,12.79
2018-10-19T05:43:30.406Z,12.74
2018-10-19T05:45:57.991Z,12.75
2018-10-19T05:48:25.246Z,12.80
2018-10-19T05:50:52.524Z,12.92
2018-10-19T05:53:20.199Z,12.92
2018-10-19T05:55:47.451Z,12.87
2018-10-19T05:58:14.727Z,12.76
2018-10-19T06:00:41.976Z,12.77
2018-10-19T06:03:09.422Z,12.55
2018-10-19T06:05:36.703Z,12.49
2018-10-19T06:08:04.405Z,12.47
2018-10-19T06:10:31.720Z,12.46
2018-10-19T06:12:59.725Z,12.52
2018-10-19T06:15:27.001Z,12.53
2018-10-19T06:17:54.291Z,12.59
2018-10-19T06:20:21.572Z,12.59
2018-10-19T06:22:48.927Z,12.51
2018-10-19T06:25:16.209Z,12.45
2018-10-19T06:27:43.515Z,12.58
2018-10-19T06:30:10.740Z,12.72
2018-10-19T06:32:38.348Z,12.82
2018-10-19T06:35:05.676Z,12.81
2018-10-19T06:37:32.945Z,12.83
2018-10-19T06:40:00.261Z,12.76
2018-10-19T06:42:28.015Z,12.78
2018-10-19T06:44:55.347Z,12.99
2018-10-19T06:47:22.773Z,12.73
2018-10-19T06:49:50.108Z,12.67
2018-10-19T06:52:17.577Z,12.77
2018-10-19T06:54:44.871Z,12.97
2018-10-19T06:57:12.090Z,13.04
2018-10-19T06:59:39.484Z,13.17
2018-10-19T07:02:06.805Z,13.24
2018-10-19T07:04:34.118Z,13.30
2018-10-19T07:07:01.391Z,13.36
2018-10-19T07:09:28.836Z,13.37
2018-10-19T07:11:57.099Z,13.45
2018-10-19T07:14:24.329Z,13.41
2018-10-19T07:16:51.681Z,13.60
2018-10-19T07:19:18.992Z,13.70
2018-10-19T07:21:48.175Z,13.84
2018-10-19T07:24:15.677Z,13.89
2018-10-19T07:26:42.962Z,13.83
2018-10-19T07:29:10.295Z,13.86
2018-10-19T07:31:37.560Z,13.87
2018-10-19T07:34:04.849Z,13.98
2018-10-19T07:36:32.334Z,13.84
2018-10-19T07:38:59.538Z,13.36
2018-10-19T07:41:26.890Z,13.44
2018-10-19T07:43:54.367Z,13.49
2018-10-19T07:46:21.626Z,13.85
2018-10-19T07:48:49.053Z,14.02
2018-10-19T07:51:16.368Z,14.33
2018-10-19T07:53:43.590Z,14.48
2018-10-19T07:56:11.055Z,14.11
2018-10-19T07:58:38.290Z,14.34
2018-10-19T08:01:05.597Z,14.22
2018-10-19T08:03:32.896Z,14.37
2018-10-19T08:06:00.371Z,14.20
2018-10-19T08:08:27.683Z,14.13
2018-10-19T08:10:55.053Z,14.55
2018-10-19T08:13:22.385Z,14.81
2018-10-19T08:15:49.624Z,14.96
2018-10-19T08:18:16.920Z,14.96
2018-10-19T08:20:44.237Z,15.17
2018-10-19T08:23:11.682Z,14.84
2018-10-19T08:25:38.942Z,15.06
2018-10-19T08:28:07.155Z,15.14
2018-10-19T08:30:34.566Z,15.26
2018-10-19T08:33:01.854Z,15.42
2018-10-19T08:35:29.163Z,15.56
2018-10-19T08:37:56.491Z,15.58
2018-10-19T08:40:23.710Z,15.70
2018-10-19T08:42:51.002Z,15.93
2018-10-19T08:45:19.601Z,15.79
2018-10-19T08:47:47.321Z,15.94
2018-10-19T08:50:14.632Z,16.05
2018-10-19T08:52:42.078Z,15.73
2018-10-19T08:55:09.694Z,16.22
2018-10-19T08:57:41.048Z,16.45
2018-10-19T09:00:09.823Z,16.69
2018-10-19T09:02:37.067Z,16.70
2018-10-19T09:05:04.527Z,16.76
2018-10-19T09:07:31.850Z,16.72
2018-10-19T09:09:59.198Z,16.72
2018-10-19T09:12:27.152Z,16.77
2018-10-19T09:14:56.058Z,16.47
2018-10-19T09:17:23.662Z,16.24
2018-10-19T09:19:51.167Z,16.34
2018-10-19T09:22:19.139Z,16.58
2018-10-19T09:24:46.479Z,16.80
2018-10-19T09:27:13.842Z,16.48
2018-10-19T09:29:41.199Z,16.46
2018-10-19T09:32:08.772Z,16.09
2018-10-19T09:34:36.507Z,16.79
2018-10-19T09:37:04.520Z,16.95
2018-10-19T09:39:31.779Z,16.77
2018-10-19T09:41:59.096Z,16.97
2018-10-19T09:44:26.522Z,17.03
2018-10-19T09:46:53.877Z,17.65
2018-10-19T09:49:30.120Z,17.74
2018-10-19T09:51:57.909Z,17.93
2018-10-19T09:54:25.331Z,17.28
2018-10-19T09:56:53.364Z,17.44
2018-10-19T09:59:20.699Z,17.38
2018-10-19T10:01:48.044Z,17.12
2018-10-19T10:04:15.324Z,18.04
2018-10-19T10:06:42.623Z,17.39
2018-10-19T10:09:12.201Z,17.26
2018-10-19T10:11:39.846Z,17.59
2018-10-19T10:14:07.103Z,17.99
2018-10-19T10:16:34.647Z,17.94
2018-10-19T10:19:01.941Z,18.12
2018-10-19T10:21:29.226Z,18.58
2018-10-19T10:23:56.620Z,18.56
2018-10-19T10:26:23.968Z,18.71
2018-10-19T10:28:51.364Z,18.84
2018-10-19T10:31:18.616Z,18.50
2018-10-19T10:33:46.629Z,18.39
2018-10-19T10:36:13.956Z,18.61
2018-10-19T10:38:41.237Z,18.53
2018-10-19T10:41:08.536Z,18.64
2018-10-19T10:43:35.831Z,18.26
2018-10-19T10:46:03.840Z,18.90
2018-10-19T10:48:31.159Z,19.40
2018-10-19T10:50:58.514Z,18.91
2018-10-19T10:53:25.899Z,19.29
2018-10-19T10:55:53.164Z,19.29
2018-10-19T10:58:20.497Z,19.15
2018-10-19T11:00:47.822Z,19.12
2018-10-19T11:03:15.207Z,19.19
2018-10-19T11:05:42.539Z,19.31
2018-10-19T11:08:10.166Z,19.75
2018-10-19T11:10:38.173Z,20.48
2018-10-19T11:13:05.678Z,20.31
2018-10-19T11:15:33.027Z,20.79
2018-10-19T11:18:00.327Z,20.49
2018-10-19T11:20:27.646Z,20.35
2018-10-19T11:22:55.138Z,20.35
2018-10-19T11:25:22.545Z,19.90
2018-10-19T11:27:49.871Z,20.93
2018-10-19T11:30:18.510Z,20.47
2018-10-19T11:32:45.925Z,19.92
2018-10-19T11:35:13.239Z,20.26
2018-10-19T11:37:40.608Z,20.97
2018-10-19T11:40:22.315Z,21.11
2018-10-19T11:42:50.532Z,20.81
2018-10-19T11:45:17.824Z,21.78
2018-10-19T11:47:45.292Z,22.09
2018-10-19T11:50:12.538Z,22.17
2018-10-19T11:52:41.012Z,22.41
2018-10-19T11:55:08.680Z,22.18
2018-10-19T11:57:35.968Z,22.23
2018-10-19T12:00:03.400Z,22.54
2018-10-19T12:02:30.693Z,21.52
2018-10-19T12:04:57.982Z,22.21
2018-10-19T12:07:25.237Z,22.56
2018-10-19T12:09:52.510Z,22.19
2018-10-19T12:12:19.792Z,22.56
2018-10-19T12:14:47.225Z,22.66
2018-10-19T12:17:14.511Z,22.23
2018-10-19T12:19:41.758Z,22.10
2018-10-19T12:22:09.235Z,22.70
2018-10-19T12:24:36.576Z,22.18
2018-10-19T12:27:04.086Z,22.60
2018-10-19T12:29:31.380Z,22.79
2018-10-19T12:31:58.751Z,21.75
2018-10-19T12:34:26.583Z,22.32
2018-10-19T12:36:53.858Z,21.92
2018-10-19T12:39:21.243Z,22.34
2018-10-19T12:41:48.725Z,23.07
2018-10-19T12:44:16.055Z,22.94
2018-10-19T12:46:57.198Z,22.86
2018-10-19T12:49:24.491Z,22.99
2018-10-19T12:51:51.857Z,22.93
2018-10-19T12:54:19.828Z,23.07
2018-10-19T12:56:47.190Z,22.66
2018-10-19T12:59:14.605Z,21.88
2018-10-19T13:01:42.051Z,21.66
2018-10-19T13:04:09.426Z,21.14
2018-10-19T13:06:36.782Z,20.90
2018-10-19T13:09:08.403Z,21.24
2018-10-19T13:11:35.626Z,21.72
2018-10-19T13:14:05.622Z,21.02
2018-10-19T13:16:33.031Z,21.82
2018-10-19T13:19:00.321Z,21.47
2018-10-19T13:21:27.760Z,21.45
2018-10-19T13:23:55.071Z,21.40
2018-10-19T13:26:22.328Z,21.13
2018-10-19T13:28:49.629Z,21.28
2018-10-19T13:31:16.949Z,21.50
2018-10-19T13:33:44.262Z,20.98
2018-10-19T13:36:11.555Z,21.84
2018-10-19T13:38:39.024Z,21.33
2018-10-19T13:41:06.307Z,21.10
2018-10-19T13:43:33.591Z,22.18
2018-10-19T13:46:01.064Z,22.12
2018-10-19T13:48:28.312Z,22.05
2018-10-19T13:50:55.629Z,22.36
2018-10-19T13:53:22.900Z,22.63
2018-10-19T13:55:50.909Z,22.00
2018-10-19T13:58:18.326Z,21.69
2018-10-19T14:00:45.817Z,21.52
2018-10-19T14:03:13.180Z,21.40
2018-10-19T14:05:40.585Z,20.89
2018-10-19T14:08:07.863Z,21.31
2018-10-19T14:10:35.843Z,21.22
2018-10-19T14:13:03.126Z,21.33
2018-10-19T14:15:30.477Z,21.26
2018-10-19T14:17:57.834Z,20.89
2018-10-19T14:20:25.185Z,20.70
2018-10-19T14:22:52.564Z,20.83
2018-10-19T14:25:19.823Z,20.56
2018-10-19T14:27:47.120Z,21.02
2018-10-19T14:30:15.973Z,20.83
2018-10-19T14:32:43.496Z,21.23
2018-10-19T14:35:11.853Z,21.40
2018-10-19T14:37:40.167Z,21.30
2018-10-19T14:40:10.160Z,21.31
2018-10-19T14:42:38.092Z,20.65
2018-10-19T14:45:05.978Z,20.48
2018-10-19T14:47:34.108Z,20.27
2018-10-19T14:50:02.648Z,20.18
2018-10-19T14:52:29.934Z,20.43
2018-10-19T14:54:57.431Z,20.52
2018-10-19T14:57:24.838Z,20.99
2018-10-19T14:59:52.172Z,20.57
2018-10-19T15:02:19.455Z,20.29
2018-10-19T15:04:48.852Z,20.31
2018-10-19T15:07:16.176Z,20.11
2018-10-19T15:09:43.557Z,20.02
2018-10-19T15:12:11.570Z,19.81
2018-10-19T15:14:38.956Z,19.93
2018-10-19T15:17:06.414Z,19.70
2018-10-19T15:19:33.706Z,19.98
2018-10-19T15:22:01.056Z,20.16
2018-10-19T15:24:29.165Z,20.09
2018-10-19T15:26:56.507Z,19.95
2018-10-19T15:29:24.762Z,19.99
2018-10-19T15:31:53.087Z,19.99
2018-10-19T15:34:20.318Z,19.94
2018-10-19T15:36:47.624Z,19.91
2018-10-19T15:39:14.937Z,19.85
2018-10-19T15:41:42.213Z,19.77
2018-10-19T15:44:11.126Z,19.75
2018-10-19T15:46:38.545Z,19.70
2018-10-19T15:49:06.767Z,19.65
2018-10-19T15:51:34.083Z,19.54
2018-10-19T15:54:02.191Z,19.41
2018-10-19T15:56:30.267Z,19.37
2018-10-19T15:58:57.581Z,19.30
2018-10-19T16:01:24.856Z,19.22
2018-10-19T16:03:52.364Z,19.02
2018-10-19T16:06:20.323Z,19.02
2018-10-19T16:08:47.611Z,18.97
2018-10-19T16:11:15.749Z,18.91
2018-10-19T16:13:43.934Z,18.73
2018-10-19T16:16:11.243Z,18.70
2018-10-19T16:18:39.581Z,18.50
2018-10-19T16:21:06.965Z,18.44
2018-10-19T16:23:34.269Z,18.41
2018-10-19T16:26:02.383Z,18.33
2018-10-19T16:28:30.063Z,18.32
2018-10-19T16:30:57.342Z,18.30
2018-10-19T16:33:24.662Z,18.22
2018-10-19T16:35:52.958Z,18.15
2018-10-19T16:38:20.216Z,18.06
2018-10-19T16:40:47.580Z,17.82
2018-10-19T16:43:14.939Z,17.75
2018-10-19T16:45:42.232Z,17.54
2018-10-19T16:48:10.227Z,17.42
2018-10-19T16:50:37.541Z,17.58
2018-10-19T16:53:05.360Z,17.57
2018-10-19T16:55:33.176Z,17.41
2018-10-19T16:58:00.579Z,17.54
2018-10-19T17:00:27.857Z,17.46
2018-10-19T17:02:55.951Z,17.20
2018-10-19T17:05:23.660Z,17.21
2018-10-19T17:07:50.936Z,17.14
2018-10-19T17:10:18.223Z,17.32
2018-10-19T17:12:45.704Z,17.34
2018-10-19T17:15:13.046Z,17.12
2018-10-19T17:17:40.741Z,16.95
2018-10-19T17:20:08.179Z,17.04
2018-10-19T17:22:35.849Z,16.89
2018-10-19T17:25:03.399Z,16.85
2018-10-19T17:27:30.678Z,16.86
2018-10-19T17:29:58.275Z,16.82
2018-10-19T17:32:25.631Z,16.83
2018-10-19T17:34:52.984Z,16.68
2018-10-19T17:37:20.477Z,16.68
2018-10-19T17:39:47.787Z,16.57
2018-10-19T17:42:15.259Z,16.61
2018-10-19T17:44:42.473Z,16.55
2018-10-19T17:47:10.249Z,16.63
2018-10-19T17:49:38.039Z,16.74
2018-10-19T17:52:05.952Z,16.73
2018-10-19T17:54:33.332Z,16.68
2018-10-19T17:57:00.548Z,16.70
2018-10-19T17:59:27.837Z,16.57
2018-10-19T18:01:55.269Z,16.70
2018-10-19T18:04:22.670Z,16.67
2018-10-19T18:06:49.993Z,16.60
2018-10-19T18:09:17.455Z,16.60
2018-10-19T18:11:45.701Z,16.43
2018-10-19T18:14:13.035Z,16.26
2018-10-19T18:16:40.463Z,16.15
2018-10-19T18:19:08.327Z,16.22
2018-10-19T18:21:35.780Z,16.17
2018-10-19T18:24:03.121Z,16.21
2018-10-19T18:26:30.427Z,16.16
2018-10-19T18:28:57.772Z,16.02
2018-10-19T18:31:25.236Z,15.96
2018-10-19T18:33:52.613Z,15.94
2018-10-19T18:36:19.927Z,16.04
2018-10-19T18:38:47.275Z,15.88
2018-10-19T18:41:14.700Z,15.78
2018-10-19T18:43:41.904Z,15.73
2018-10-19T18:46:09.253Z,15.69
2018-10-19T18:48:36.861Z,15.65
2018-10-19T18:51:04.477Z,15.56
2018-10-19T18:53:31.756Z,15.65
2018-10-19T18:55:59.141Z,15.72
2018-10-19T18:58:26.403Z,15.60
2018-10-19T19:00:54.283Z,15.52
2018-10-19T19:03:21.631Z,15.47
2018-10-19T19:05:49.029Z,15.42
2018-10-19T19:08:17.088Z,15.43
2018-10-19T19:10:44.401Z,15.37
2018-10-19T19:13:17.747Z,15.39
2018-10-19T19:15:44.999Z,15.34
2018-10-19T19:18:12.276Z,15.46
2018-10-19T19:20:39.561Z,15.47
2018-10-19T19:23:06.864Z,15.43
2018-10-19T19:25:39.965Z,15.41
2018-10-19T19:28:07.268Z,15.38
2018-10-19T19:30:34.574Z,15.40
2018-10-19T19:33:07.660Z,15.34
2018-10-19T19:35:35.089Z,15.32
2018-10-19T19:38:03.241Z,15.31
2018-10-19T19:40:35.075Z,15.28
2018-10-19T19:43:02.510Z,15.39
2018-10-19T19:45:29.870Z,15.41
2018-10-19T19:48:03.019Z,15.42
2018-10-19T19:50:30.329Z,15.37
2018-10-19T19:52:57.676Z,15.34
2018-10-19T19:55:25.141Z,15.30
2018-10-19T19:57:52.815Z,15.12
2018-10-19T20:00:20.192Z,14.97
2018-10-19T20:02:47.723Z,14.87
2018-10-19T20:05:15.283Z,14.73
2018-10-19T20:07:42.759Z,14.73
2018-10-19T20:10:10.263Z,14.85
2018-10-19T20:12:37.623Z,14.70
2018-10-19T20:15:06.811Z,14.75
2018-10-19T20:17:34.208Z,14.71
2018-10-19T20:20:01.603Z,14.67
2018-10-19T20:22:28.873Z,14.62
2018-10-19T20:24:56.204Z,14.68
2018-10-19T20:27:23.513Z,14.80
2018-10-19T20:29:50.756Z,14.68
2018-10-19T20:32:18.239Z,14.73
2018-10-19T20:34:45.392Z,14.73
2018-10-19T20:37:13.698Z,14.66
2018-10-19T20:39:40.998Z,14.66
2018-10-19T20:42:08.375Z,14.65
2018-10-19T20:44:36.354Z,14.62
2018-10-19T20:47:03.743Z,14.55
2018-10-19T20:49:31.109Z,14.54
2018-10-19T20:51:58.544Z,14.61
2018-10-19T20:54:25.894Z,14.63
2018-10-19T20:56:53.266Z,14.59
2018-10-19T20:59:20.782Z,14.57
2018-10-19T21:01:48.071Z,14.53
2018-10-19T21:04:15.363Z,14.51
2018-10-19T21:06:42.678Z,14.49
2018-10-19T21:09:10.899Z,14.42
2018-10-19T21:11:38.991Z,14.45
2018-10-19T21:14:06.649Z,14.44
2018-10-19T21:16:33.901Z,14.34
2018-10-19T21:19:01.378Z,14.47
2018-10-19T21:21:29.909Z,14.56
2018-10-19T21:23:57.400Z,14.53
2018-10-19T21:26:24.963Z,14.49
2018-10-19T21:28:52.205Z,14.53
2018-10-19T21:31:19.613Z,14.51
2018-10-19T21:33:46.969Z,14.50
2018-10-19T21:36:14.298Z,14.43
2018-10-19T21:38:41.771Z,14.40
2018-10-19T21:41:09.171Z,14.33
2018-10-19T21:43:36.444Z,14.35
2018-10-19T21:46:03.913Z,14.26
2018-10-19T21:48:31.225Z,14.16
2018-10-19T21:50:58.537Z,13.99
2018-10-19T21:53:26.880Z,14.00
2018-10-19T21:55:54.403Z,14.17
2018-10-19T21:58:22.206Z,14.11
2018-10-19T22:00:49.577Z,14.09
2018-10-19T22:03:16.873Z,14.03
2018-10-19T22:05:45.270Z,13.91
2018-10-19T22:08:12.535Z,13.91
2018-10-19T22:10:39.826Z,13.73
2018-10-19T22:13:07.764Z,13.64
2018-10-19T22:15:35.107Z,13.54
2018-10-19T22:18:02.489Z,13.51
2018-10-19T22:20:29.711Z,13.46
2018-10-19T22:22:57.051Z,13.50
2018-10-19T22:25:24.349Z,13.49
2018-10-19T22:27:51.566Z,13.45
2018-10-19T22:30:19.720Z,13.40
2018-10-19T22:32:46.976Z,13.20
2018-10-19T22:35:14.491Z,13.20
2018-10-19T22:37:41.728Z,13.27
2018-10-19T22:40:09.016Z,13.20
2018-10-19T22:42:36.308Z,13.19
2018-10-19T22:45:03.540Z,13.30
2018-10-19T22:47:30.910Z,13.07
2018-10-19T22:49:58.279Z,12.81
2018-10-19T22:52:25.556Z,12.90
2018-10-19T22:54:53.326Z,13.01
2018-10-19T22:57:20.581Z,12.96
2018-10-19T22:59:47.956Z,12.88
2018-10-19T23:02:15.220Z,12.73
2018-10-19T23:04:42.492Z,12.82
2018-10-19T23:07:09.814Z,12.86
2018-10-19T23:09:37.190Z,12.83
2018-10-19T23:12:04.764Z,12.77
2018-10-19T23:14:32.313Z,12.90
2018-10-19T23:16:59.690Z,12.72
2018-10-19T23:19:26.950Z,12.72
2018-10-19T23:21:54.253Z,12.85
2018-10-19T23:24:21.479Z,12.73
2018-10-19T23:26:48.888Z,12.66
2018-10-19T23:29:16.187Z,12.65
2018-10-19T23:31:43.743Z,12.74
2018-10-19T23:34:10.767Z,12.67
2018-10-19T23:36:38.009Z,12.57
2018-10-19T23:39:07.749Z,12.60
2018-10-19T23:41:35.157Z,12.60
2018-10-19T23:44:02.445Z,12.60
2018-10-19T23:46:29.703Z,12.58
2018-10-19T23:48:57.043Z,12.66
2018-10-19T23:51:24.847Z,12.70
2018-10-19T23:53:52.195Z,12.64
2018-10-19T23:56:19.508Z,12.71
2018-10-19T23:58:47.848Z,12.65
